მეტეოროლოგიური შეტყობინებები

მეტეოსამსახური

SAGG31 UGTB 121730

მოქმედების ლოკალური ვადა 12 ივნისი 21:30 : 12 ივნისი 22:00
GG UGTBMAIL
121734 UGTBYMYX
SAGG31 UGTB 121730
METAR UGKO 121730Z VRB02KT CAVOK 23/18 Q1012 NOSIG=
METAR UGSB 121730Z 02003KT CAVOK 25/21 Q1013 NOSIG=
METAR UGTB 121730Z 30007KT CAVOK 25/10 Q1013 NOSIG=

SAGG41 UGTB 121730

მოქმედების ლოკალური ვადა 12 ივნისი 21:30 : 12 ივნისი 22:00
GG UGTBMAIL
121734 UGTBYMYX
SAGG41 UGTB 121730
METAR UGAM 121730Z AUTO 13005KT 090V170 //// ////// 21/17 Q1016=
METAR UGMS 121730Z AUTO VRB02KT //// ////// 17/12 Q1021=

FTGG31 UGTB 121700

მოქმედების ლოკალური ვადა 12 ივნისი 22:00 : 13 ივნისი 22:00
GG UGTBMAIL
121704 UGTBYMYX
FTGG31 UGTB 121700
TAF UGKO 121700Z 1218/1318 26007KT CAVOK TX32/1311Z TN17/1302Z TEMPO
1221/1303 08010KT=
TAF UGSB 121700Z 1218/1318 VRB02KT CAVOK TX27/1311Z TN20/1301Z BECMG
1219/1221 11012KT BECMG 1305/1307 30007KT=
TAF UGTB 121700Z 1218/1318 31013KT 9999 SCT065 TX31/1312Z
TN19/1302Z
BECMG 1305/1307 31023KT=

FAGG50 UGTB 121030

მოქმედების ლოკალური ვადა 12 ივნისი 16:00 : 12 ივნისი 22:00
GG UGTBMAIL
121020 UGTBYMYX
FAGG50 UGTB 121030
UGGG GAMET VALID 121200/121800 UGTB-
UGGG TBILISI FIR BLW FL150
SECN I
SIG WX: A1 A3 A4 ISOL TS
SIG CLD: A1 A3 A4 OCNL CB 4000/39000FT AGL
A2 ISOL CB 5000/33000FT AGL
SIGMET APPLICABLE: 1
SECN II
PSYS: NIL
WIND/T: 2000FT A1 A2 A5 VRB/05KT PS28
2000FT A3 A4 VRB/03KT PS24
5000FT VRB/05KT PS18
10000FT 290/13KT PS08
15000FT 300/17KT MS01
CLD: A1 A2 A4 SCT CU 5000/8000FT AGL
A3 A4 BKN AC 10000/14000FT AGL
A1 A2 A5 SCT AC 11000/14000FT AGL
FZLVL: 14000FT AGL
MNM QNH: 1011HPA
VA: NIL=